Tiempo atmosférico en la estación meteorológica de Rivilla De Barajas, Ávila (925 m.)



Fecha
DESCASC
Temp. máxima en grados centígrados (hora)
DESCASC
Temp. mínima en grados centígrados (hora)
DESCASC
Temp. media en grados centígrados
DESCASC
Racha de viento máxima en m/sg (hora)
DESCASC
Velocidad máxima media en intervalos de 10 minutos(hora)
DESCASC
Precipitaciones diarias en mm
DESCASC
Precipitaciones de 00:00 a 06:00 en mm
DESCASC
Precipitaciones de 06:00 a 12:00 en mm
DESCASC
Precipitaciones de 12:00 a 18:00 en mm
DESCASC
Precipitaciones de 18:00 a 24:00 en mm
DESCASC
31-05-2020 24.2 (17:00) 13.5 (23:50) 18.9 15 (18:50) 10.28 (18:50) 1.6 0 0 0 1.6
30-05-2020 27.6 (14:00) 15.8 (06:40) 21.7 16.94 (18:30) 10.28 (19:20) 6.2 0 0 2.8 3.4
29-05-2020 28.5 (17:10) 12.7 (05:30) 20.6 7.5 (15:40) 4.17 (18:30) 0 0 0 0 0
28-05-2020 27.5 (18:00) 15.4 (00:00) 21.4 10 (01:40) 5.83 (11:20) 0 0 0 0 0
27-05-2020 26.9 (17:00) 13.4 (00:00) 20.1 13.06 (11:20) 7.78 (11:10) 0 0 0 0 0
26-05-2020 25.4 (17:00) 9 (00:00) 17.2 12.22 (17:10) 8.06 (17:20) 2.6 0 0 2.6 0
25-05-2020 26.9 (17:00) 11.9 (00:00) 19.4 9.72 (21:00) 6.39 (20:30) 0 0 0 0 0
24-05-2020 26.8 (17:30) 7.7 (00:00) 17.2 7.78 (14:20) 4.72 (15:20) 0 0 0 0 0
23-05-2020 25.5 (18:00) 13.1 (00:00) 19.3 10.83 (21:00) 7.78 (21:00) 0 0 0 0 0
22-05-2020 28 (16:30) 13.6 (00:00) 20.8 9.72 (15:30) 5.83 (19:20) 0 0 0 0 0
21-05-2020 28.3 (17:40) 12.5 (00:00) 20.4 9.17 (18:10) 6.39 (18:20) 0 0 0 0 0
20-05-2020 25.7 (17:40) 9.8 (00:00) 17.8 8.89 (15:10) 3.61 (12:50) 0 0 0 0 0
19-05-2020 23.5 (17:20) 9.3 (00:00) 16.4 6.67 (17:10) 3.89 (18:00) 0 0 0 0 0
18-05-2020 21.9 (18:50) 6.3 (00:00) 14.1 7.78 (16:40) 3.89 (13:20) 0 0 0 0 0
17-05-2020 18.3 (19:20) 3.2 (00:00) 10.7 6.67 (16:00) 4.17 (14:00) 0 0 0 0 0
16-05-2020 16.5 (18:40) 5.5 (00:00) 11 9.44 (19:00) 6.39 (19:00) 0 0 0 0 0
15-05-2020 14.5 (17:20) 6.4 (00:00) 10.5 9.72 (19:30) 6.67 (19:30) 0.6 0 0.2 0 0.4
14-05-2020 12.8 (18:40) 7.1 (00:00) 10 8.33 (06:50) 4.44 (06:50) 3 0 2.6 0.4 0
13-05-2020 15 (12:50) 7.5 (00:00) 11.3 9.44 (04:50) 6.11 (04:30) 8 0.6 0 7.4 0
12-05-2020 17 (14:30) 7.9 (00:00) 12.5 10.83 (15:10) 7.5 (15:20) 7 0 0 0 7
11-05-2020 17.2 (14:30) 6.7 (00:00) 12 12.22 (16:30) 7.5 (16:40) 0.6 0 0 0.6 0
10-05-2020 15.6 (15:30) 7.2 (00:00) 11.4 11.11 (14:00) 6.94 (18:50) 2.6 2.6 0 0 0
09-05-2020 18.2 (17:20) 10.1 (00:00) 14.2 11.11 (20:50) 6.11 (20:30) 0 0 0 0 0
08-05-2020 23.9 (16:00) 13.1 (00:00) 18.5 10.83 (02:10) 5.83 (18:20) 0 0 0 0 0
07-05-2020 24.9 (16:40) 10.4 (00:00) 17.6 12.5 (16:10) 8.89 (16:10) 0 0 0 0 0
06-05-2020 21 (18:30) 7.2 (00:00) 14.1 6.94 (17:00) 3.61 (19:20) 0 0 0 0 0
05-05-2020 19.5 (17:30) 7.1 (00:00) 13.3 8.61 (19:00) 6.11 (19:00) 0 0 0 0 0
04-05-2020 26.2 (16:30) 12.5 (00:00) 19.4 17.5 (18:00) 10.28 (18:30) 0 0 0 0 0
03-05-2020 25.4 (17:40) 10.2 (00:00) 17.8 5.56 (17:20) 3.33 (17:30) 0 0 0 0 0
02-05-2020 22.1 (17:40) 9.9 (00:00) 16 9.72 (14:20) 6.39 (14:40) 0 0 0 0 0

Gráficas

Temp. máximas Temp. mínimas Temp. medias Precipitaciones Rachas de viento máximas Velocidades máximas media en intervalos de 10 minutos

Datos horarios

Fecha y hora oficial Temperatura (ºC) Velocidad del viento (km/h) Dirección del viento Racha (km/h) Dirección de racha Precipitación (mm) Presión (hPa) Tendencia (hPa) Humedad (%)
2020-05-31 23:00:00 13.6 5 Sudeste 14 Sudoeste 0 -- -- 93
2020-05-31 22:00:00 14.3 9 Sudoeste 16 Oeste 0.2 -- -- 89
2020-05-31 21:00:00 14.5 9 Sudoeste 29 Noroeste 1.2 -- -- 88
2020-05-31 20:00:00 14.9 13 Oeste 36 Oeste 0.2 -- -- 83
2020-05-31 19:00:00 15.6 32 Noroeste 54 Noroeste 0 -- -- 81
2020-05-31 18:00:00 21.6 17 Sudeste 28 Este 0 -- -- 50
2020-05-31 17:00:00 24.2 15 Sudeste 30 Sudeste 0 -- -- 46
2020-05-31 16:00:00 20.9 5 Sudeste 21 Sur 0 -- -- 56
2020-05-31 15:00:00 20.2 13 Sur 26 Sudeste 0 -- -- 59
2020-05-31 14:00:00 22.4 14 Sudeste 21 Sudeste 0 -- -- 52
2020-05-31 13:00:00 22.8 11 Nordeste 28 Norte 0 -- -- 44
2020-05-31 12:00:00 22.5 15 Norte 27 Noroeste 0 -- -- 51
2020-05-31 11:00:00 22 21 Noroeste 28 Noroeste 0 -- -- 53
2020-05-31 10:00:00 19.8 14 Oeste 32 Oeste 0 -- -- 63
2020-05-31 09:00:00 19.1 14 Noroeste 31 Noroeste 0 -- -- 60
2020-05-31 08:00:00 17.5 8 Sudoeste 15 Sudoeste 0 -- -- 57
2020-05-31 07:00:00 14.1 6 Sur 12 Sur 0 -- -- 68
2020-05-31 06:00:00 14.4 5 Sur 10 Sur 0 -- -- 68
2020-05-31 05:00:00 15.5 6 Sur 13 Sur 0 -- -- 64
2020-05-31 04:00:00 16.5 7 Sur 12 Sur 0 -- -- 60
2020-05-31 03:00:00 16.8 5 Sur 12 Sur 0 -- -- 62
2020-05-31 02:00:00 16.8 5 Sur 10 Sur 0 -- -- 63
2020-05-31 01:00:00 16.3 6 Sur 12 Sur 0 -- -- 66
2020-05-31 00:00:00 16 8 Sur 16 Sur 0 -- -- 68
2020-05-30 23:00:00 16.9 8 Sur 14 Sur 0 -- -- 68
2020-05-30 22:00:00 16.8 5 Sudoeste 10 Sur 0 -- -- 75
2020-05-30 21:00:00 18.2 6 Sudoeste 37 Sudeste 0 -- -- 69
2020-05-30 20:00:00 18.6 15 Nordeste 51 Oeste 0.2 -- -- 59
2020-05-30 19:00:00 19.3 30 Oeste 61 Sudoeste 3.2 -- -- 54
2020-05-30 18:00:00 18.9 23 Sur 51 Sudeste 2.8 -- -- 58
2020-05-30 17:00:00 24.7 14 Sudoeste 28 Sudoeste 0 -- -- 41
2020-05-30 16:00:00 27.2 10 Noroeste 24 Norte 0 -- -- 30
2020-05-30 15:00:00 27 7 Nordeste 22 Noroeste 0 -- -- 33
2020-05-30 14:00:00 27.6 7 Noroeste 19 Noroeste 0 -- -- 31
2020-05-30 13:00:00 26.1 10 Norte 15 Norte 0 -- -- 37
2020-05-30 12:00:00 25.9 6 Norte 15 Este 0 -- -- 42
2020-05-30 11:00:00 24.2 3 Nordeste 9 Nordeste 0 -- -- 54
2020-05-30 10:00:00 22.7 3 Nordeste 8 Norte 0 -- -- 59
2020-05-30 09:00:00 19.8 0 Calma 8 Sudeste 0 -- -- 68
2020-05-30 08:00:00 16.1 8 Sudeste 17 Oeste 0 -- -- 78
2020-05-30 07:00:00 16 9 Sudoeste 18 Sudoeste 0 -- -- 77
2020-05-30 06:00:00 16.4 13 Sudoeste 19 Sudoeste 0 -- -- 75
2020-05-30 05:00:00 16.2 12 Sudoeste 20 Sudoeste 0 -- -- 76
2020-05-30 04:00:00 16.2 12 Sudoeste 18 Sudoeste 0 -- -- 77
2020-05-30 03:00:00 17 13 Sudoeste 18 Sudoeste 0 -- -- 73
2020-05-30 02:00:00 17.9 11 Sudoeste 19 Sudoeste 0 -- -- 67
2020-05-30 01:00:00 18.8 13 Sudoeste 18 Sudoeste 0 -- -- 60
2020-05-30 00:00:00 19.7 12 Sudoeste 20 Sudoeste 0 -- -- 53
2020-05-29 23:00:00 20.9 11 Sudoeste 20 Sudoeste 0 -- -- 44
2020-05-29 22:00:00 22.6 0 Calma 5 Nordeste 0 -- -- 37
2020-05-29 21:00:00 24.5 3 Nordeste 12 Nordeste 0 -- -- 35
2020-05-29 20:00:00 25.8 10 Nordeste 15 Nordeste 0 -- -- 32
2020-05-29 19:00:00 27.1 10 Nordeste 25 Norte 0 -- -- 28
2020-05-29 18:00:00 27.7 6 Nordeste 24 Nordeste 0 -- -- 25
2020-05-29 17:00:00 28.3 10 Noroeste 25 Norte 0 -- -- 28
2020-05-29 16:00:00 27.6 5 Noroeste 27 Norte 0 -- -- 29
2020-05-29 15:00:00 27.4 5 Sudoeste 25 Este 0 -- -- 28
2020-05-29 14:00:00 27.2 9 Nordeste 25 Este 0 -- -- 31
2020-05-29 13:00:00 26.5 8 Nordeste 19 Este 0 -- -- 32
2020-05-29 12:00:00 25.6 8 Nordeste 18 Nordeste 0 -- -- 34
2020-05-29 11:00:00 24.3 5 Noroeste 10 Noroeste 0 -- -- 43
2020-05-29 10:00:00 22.5 6 Sudoeste 16 Oeste 0 -- -- 48
2020-05-29 09:00:00 20.4 4 Sudoeste 9 Sudoeste 0 -- -- 54
2020-05-29 08:00:00 15.7 2 Sudeste 15 Sudoeste 0 -- -- 65
2020-05-29 07:00:00 12.8 6 Sudoeste 10 Sudoeste 0 -- -- 70
2020-05-29 06:00:00 13.2 0 Calma 5 Sudeste 0 -- -- 66
2020-05-29 05:00:00 13.4 3 Sudoeste 6 Sudoeste 0 -- -- 66
2020-05-29 04:00:00 14.7 4 Sudeste 6 Sudeste 0 -- -- 61
2020-05-29 03:00:00 14.9 3 Sudoeste 12 Sur 0 -- -- 61
2020-05-29 02:00:00 16.4 5 Sur 11 Sur 0 -- -- 55
2020-05-29 01:00:00 16.8 6 Sur 12 Sur 0 -- -- 53
2020-05-29 00:00:00 17.6 4 Sur 9 Sur 0 -- -- 51
2020-05-28 23:00:00 19.2 6 Sur 14 Sur 0 -- -- 48
2020-05-28 22:00:00 21 5 Sudeste 12 Sudeste 0 -- -- 45
2020-05-28 21:00:00 23.9 7 Sur 15 Sur 0 -- -- 40
2020-05-28 20:00:00 25.4 12 Este 19 Este 0 -- -- 38
2020-05-28 19:00:00 25.9 12 Nordeste 22 Nordeste 0 -- -- 38
2020-05-28 18:00:00 27.5 9 Nordeste 27 Nordeste 0 -- -- 32
2020-05-28 17:00:00 26.1 15 Este 31 Este 0 -- -- 33
2020-05-28 16:00:00 26.5 18 Este 36 Este 0 -- -- 34
2020-05-28 15:00:00 26.3 9 Este 30 Este 0 -- -- 36
2020-05-28 14:00:00 25.5 13 Este 31 Este 0 -- -- 32
2020-05-28 13:00:00 24.7 16 Este 31 Este 0 -- -- 38
2020-05-28 12:00:00 24.1 17 Sudeste 31 Sudeste 0 -- -- 36
2020-05-28 11:00:00 22.8 17 Sudeste 27 Sudeste 0 -- -- 37
2020-05-28 10:00:00 21.1 17 Sudeste 33 Sudeste 0 -- -- 38
2020-05-28 09:00:00 19.1 16 Sudeste 28 Sur 0 -- -- 35
2020-05-28 08:00:00 16.9 11 Sudeste 23 Sudeste 0 -- -- 37
2020-05-28 07:00:00 16.1 15 Sudeste 35 Sudeste 0 -- -- 36
2020-05-28 06:00:00 16.2 14 Sur 36 Sur 0 -- -- 42
2020-05-28 05:00:00 16.9 17 Sur 32 Sur 0 -- -- 39
2020-05-28 04:00:00 17.4 15 Sur 34 Sudeste 0 -- -- 39
2020-05-28 03:00:00 17.9 18 Sur 33 Sudeste 0 -- -- 37
2020-05-28 02:00:00 18 14 Sur 36 Sur 0 -- -- 50
2020-05-28 01:00:00 18.1 11 Sur 20 Sur 0 -- -- 53
2020-05-28 00:00:00 17.4 8 Sur 13 Sudeste 0 -- -- 58
2020-05-27 23:00:00 19.1 7 Sur 10 Sur 0 -- -- 53
2020-05-27 22:00:00 21.5 3 Sur 13 Sur 0 -- -- 45
2020-05-27 21:00:00 24.2 7 Sudeste 22 Sudeste 0 -- -- 39
2020-05-27 20:00:00 25.4 14 Sudeste 32 Sudeste 0 -- -- 36
2020-05-27 19:00:00 26.3 13 Sudeste 35 Sudeste 0 -- -- 35
2020-05-27 18:00:00 26.8 16 Sudeste 39 Este 0 -- -- 37
2020-05-27 17:00:00 26.9 20 Sudeste 33 Sudeste 0 -- -- 38
2020-05-27 16:00:00 26.3 20 Sudeste 41 Sudeste 0 -- -- 36
2020-05-27 15:00:00 25.7 19 Este 35 Sudeste 0 -- -- 37
2020-05-27 14:00:00 25.1 24 Sudeste 38 Sudeste 0 -- -- 37
2020-05-27 13:00:00 24.1 23 Sudeste 40 Sudeste 0 -- -- 35
2020-05-27 12:00:00 22.9 24 Sudeste 47 Sudeste 0 -- -- 39
2020-05-27 11:00:00 21.5 26 Sudeste 41 Sudeste 0 -- -- 40
2020-05-27 10:00:00 20.1 24 Sudeste 43 Sudeste 0 -- -- 47
2020-05-27 09:00:00 18.7 17 Sudeste 30 Sudeste 0 -- -- 54
2020-05-27 08:00:00 17.2 12 Sudeste 27 Sur 0 -- -- 52
2020-05-27 07:00:00 13.6 10 Sudeste 21 Sudeste 0 -- -- 69
2020-05-27 06:00:00 14 15 Sudeste 21 Sudeste 0 -- -- 74
2020-05-27 05:00:00 13.4 11 Este 19 Sudeste 0 -- -- 86
2020-05-27 04:00:00 14.7 13 Sudeste 19 Sudeste 0 -- -- 85
2020-05-27 03:00:00 16 6 Sudeste 21 Sudeste 0 -- -- 80
2020-05-27 02:00:00 16.3 11 Sudeste 22 Sur 0 -- -- 78
2020-05-27 01:00:00 14.9 4 Sudeste 9 Sudeste 0 -- -- 86
2020-05-27 00:00:00 16.2 4 Sudeste 9 Sudeste 0 -- -- 84
2020-05-26 23:00:00 17.4 4 Sudeste 9 Sudeste 0 -- -- 84
2020-05-26 22:00:00 18.7 5 Sudeste 17 Sudeste 0 -- -- 80
2020-05-26 21:00:00 20.4 13 Sudeste 27 Sudeste 0 -- -- 71
2020-05-26 20:00:00 22.1 21 Sudeste 36 Este 0 -- -- 56
2020-05-26 19:00:00 22.9 16 Este 30 Este 0 -- -- 56
2020-05-26 18:00:00 20.5 15 Este 44 Este 2.6 -- -- 73
2020-05-26 17:00:00 25.4 11 Este 28 Este 0 -- -- 43
2020-05-26 16:00:00 24.7 13 Este 27 Este 0 -- -- 48
2020-05-26 15:00:00 22.6 13 Este 33 Sudeste 0 -- -- 59
2020-05-26 14:00:00 21.9 23 Sudeste 36 Este 0 -- -- 56
2020-05-26 13:00:00 22.7 19 Este 39 Este 0 -- -- 54
2020-05-26 12:00:00 23 20 Este 30 Este 0 -- -- 53
2020-05-26 11:00:00 21.4 10 Sudeste 19 Nordeste 0 -- -- 58
2020-05-26 10:00:00 15.9 8 Nordeste 14 Nordeste 0 -- -- 82
2020-05-26 09:00:00 12.5 9 Nordeste 13 Este 0 -- -- 92
2020-05-26 08:00:00 10.5 4 Este 8 Nordeste 0 -- -- 97
2020-05-26 07:00:00 9 4 Nordeste 10 Norte 0 -- -- 97
2020-05-26 06:00:00 9.9 4 Norte 5 Norte 0 -- -- 96
2020-05-26 05:00:00 10.6 3 Nordeste 7 Este 0 -- -- 95
2020-05-26 04:00:00 11 7 Nordeste 10 Nordeste 0 -- -- 95
2020-05-26 03:00:00 12 6 Nordeste 14 Nordeste 0 -- -- 93
2020-05-26 02:00:00 12.8 6 Nordeste 12 Nordeste 0 -- -- 91
2020-05-26 01:00:00 14.4 6 Nordeste 15 Nordeste 0 -- -- 85
2020-05-26 00:00:00 15.4 8 Nordeste 13 Nordeste 0 -- -- 80
2020-05-25 23:00:00 17.1 5 Nordeste 18 Este 0 -- -- 66
2020-05-25 22:00:00 19.6 15 Este 31 Nordeste 0 -- -- 58
2020-05-25 21:00:00 22.7 23 Nordeste 35 Nordeste 0 -- -- 42
2020-05-25 20:00:00 25.2 19 Nordeste 32 Nordeste 0 -- -- 41
2020-05-25 19:00:00 25.6 12 Nordeste 26 Nordeste 0 -- -- 40
2020-05-25 18:00:00 25.4 14 Nordeste 28 Nordeste 0 -- -- 38
2020-05-25 17:00:00 26.9 17 Nordeste 31 Nordeste 0 -- -- 39
2020-05-25 16:00:00 26.4 14 Norte 28 Este 0 -- -- 39
2020-05-25 15:00:00 25.5 13 Norte 28 Nordeste 0 -- -- 38
2020-05-25 14:00:00 24.6 12 Nordeste 23 Nordeste 0 -- -- 28
2020-05-25 13:00:00 23 11 Norte 24 Norte 0 -- -- 40
2020-05-25 12:00:00 20.8 9 Nordeste 18 Norte 0 -- -- 55
2020-05-25 11:00:00 18.7 11 Norte 15 Norte 0 -- -- 69
2020-05-25 10:00:00 15.7 7 Norte 15 Norte 0 -- -- 76
2020-05-25 09:00:00 14.7 3 Este 9 Nordeste 0 -- -- 81
2020-05-25 08:00:00 12.1 3 Norte 6 Norte 0 -- -- 88
2020-05-25 07:00:00 11.9 4 Norte 9 Norte 0 -- -- 87
2020-05-25 06:00:00 13.1 4 Este 9 Sudeste 0 -- -- 82
2020-05-25 05:00:00 13.7 0 Calma 6 Nordeste 0 -- -- 83
2020-05-25 04:00:00 15.3 5 Nordeste 6 Nordeste 0 -- -- 75
2020-05-25 03:00:00 15.4 0 Calma 9 Sudeste 0 -- -- 76
2020-05-25 02:00:00 16.6 8 Sudeste 13 Sudeste 0 -- -- 71
2020-05-25 01:00:00 16.7 5 Este 12 Este 0 -- -- 70
2020-05-25 00:00:00 18.8 6 Sudeste 9 Este 0 -- -- 60
2020-05-24 23:00:00 19.8 5 Nordeste 8 Este 0 -- -- 56
2020-05-24 22:00:00 21.1 2 Nordeste 10 Norte 0 -- -- 52
2020-05-24 21:00:00 22.8 9 Norte 20 Nordeste 0 -- -- 49
2020-05-24 20:00:00 25 9 Norte 20 Noroeste 0 -- -- 46
2020-05-24 19:00:00 26.4 13 Noroeste 24 Noroeste 0 -- -- 42
2020-05-24 18:00:00 26.5 10 Noroeste 25 Noroeste 0 -- -- 45
2020-05-24 17:00:00 26 8 Noroeste 20 Oeste 0 -- -- 48
2020-05-24 16:00:00 25.4 9 Norte 26 Nordeste 0 -- -- 50
2020-05-24 15:00:00 25 14 Nordeste 28 Nordeste 0 -- -- 51
2020-05-24 14:00:00 23.9 12 Nordeste 26 Nordeste 0 -- -- 54
2020-05-24 13:00:00 21.9 12 Nordeste 23 Nordeste 0 -- -- 58
2020-05-24 12:00:00 19.4 10 Nordeste 19 Nordeste 0 -- -- 64
2020-05-24 11:00:00 16.5 10 Nordeste 19 Nordeste 0 -- -- 72
2020-05-24 10:00:00 13.5 12 Nordeste 17 Nordeste 0 -- -- 82
2020-05-24 09:00:00 11 10 Nordeste 14 Nordeste 0 -- -- 90
2020-05-24 08:00:00 9 4 Nordeste 9 Nordeste 0 -- -- 96
2020-05-24 07:00:00 7.7 4 Nordeste 8 Sudeste 0 -- -- 96
2020-05-24 06:00:00 8.1 5 Este 8 Este 0 -- -- 96
2020-05-24 05:00:00 8.7 5 Nordeste 7 Nordeste 0 -- -- 94
2020-05-24 04:00:00 9.5 3 Nordeste 10 Nordeste 0 -- -- 93
2020-05-24 03:00:00 10.1 8 Este 13 Este 0 -- -- 91
2020-05-24 02:00:00 11.3 8 Nordeste 12 Nordeste 0 -- -- 88
2020-05-24 01:00:00 12.6 9 Nordeste 12 Nordeste 0 -- -- 86
2020-05-24 00:00:00 13.7 8 Este 18 Este 0 -- -- 82
2020-05-23 23:00:00 15.3 13 Este 23 Este 0 -- -- 78
2020-05-23 22:00:00 17.6 16 Nordeste 36 Nordeste 0 -- -- 71
2020-05-23 21:00:00 20.1 28 Nordeste 39 Nordeste 0 -- -- 64
2020-05-23 20:00:00 24.1 12 Norte 22 Nordeste 0 -- -- 51
2020-05-23 19:00:00 25 8 Norte 25 Nordeste 0 -- -- 48
2020-05-23 18:00:00 25.5 12 Nordeste 25 Nordeste 0 -- -- 50
2020-05-23 17:00:00 25.3 12 Norte 22 Norte 0 -- -- 49
2020-05-23 16:00:00 24.6 12 Nordeste 24 Norte 0 -- -- 55
2020-05-23 15:00:00 23.9 8 Norte 21 Norte 0 -- -- 57
2020-05-23 14:00:00 23 8 Norte 23 Nordeste 0 -- -- 57
2020-05-23 13:00:00 22.5 12 Norte 23 Nordeste 0 -- -- 60
2020-05-23 12:00:00 21.9 10 Nordeste 18 Norte 0 -- -- 62
2020-05-23 11:00:00 21.2 3 Sur 9 Sudoeste 0 -- -- 61
2020-05-23 10:00:00 19.3 5 Noroeste 11 Oeste 0 -- -- 69
2020-05-23 09:00:00 16.5 11 Oeste 17 Oeste 0 -- -- 82
2020-05-23 08:00:00 14.2 7 Sudoeste 17 Sudoeste 0 -- -- 85
2020-05-23 07:00:00 13.4 12 Sudoeste 17 Sudoeste 0 -- -- 86
2020-05-23 06:00:00 13.9 9 Sudoeste 16 Sudoeste 0 -- -- 84
2020-05-23 05:00:00 14.1 11 Sudoeste 20 Sudoeste 0 -- -- 82
2020-05-23 04:00:00 14.4 12 Sudoeste 19 Sudoeste 0 -- -- 76
2020-05-23 03:00:00 15.3 13 Sudoeste 19 Sudoeste 0 -- -- 66
2020-05-23 02:00:00 16.2 6 Sudoeste 12 Sudoeste 0 -- -- 62
2020-05-23 01:00:00 17.2 9 Sudoeste 14 Sudoeste 0 -- -- 56
2020-05-23 00:00:00 17.2 9 Sudoeste 15 Sudoeste 0 -- -- 58
2020-05-22 23:00:00 18.2 8 Sudoeste 15 Oeste 0 -- -- 54
2020-05-22 22:00:00 20.7 10 Oeste 15 Oeste 0 -- -- 45
2020-05-22 21:00:00 24 13 Oeste 25 Oeste 0 -- -- 39
2020-05-22 20:00:00 26.3 17 Oeste 28 Oeste 0 -- -- 30
2020-05-22 19:00:00 27.3 17 Oeste 32 Oeste 0 -- -- 29
2020-05-22 18:00:00 27.6 19 Oeste 33 Oeste 0 -- -- 32
2020-05-22 17:00:00 27.9 16 Oeste 27 Sudoeste 0 -- -- 32
2020-05-22 16:00:00 27.4 15 Oeste 35 Oeste 0 -- -- 35
2020-05-22 15:00:00 26.9 12 Oeste 26 Oeste 0 -- -- 36
2020-05-22 14:00:00 26.3 16 Oeste 25 Oeste 0 -- -- 35
2020-05-22 13:00:00 25.4 5 Noroeste 18 Oeste 0 -- -- 42
2020-05-22 12:00:00 23.9 5 Sudeste 15 Sudeste 0 -- -- 49
2020-05-22 11:00:00 21.8 8 Este 13 Este 0 -- -- 64
2020-05-22 10:00:00 20.4 0 Calma 10 Noroeste 0 -- -- 68
2020-05-22 09:00:00 18.5 5 Oeste 7 Oeste 0 -- -- 76
2020-05-22 08:00:00 15.6 3 Sudoeste 9 Sudoeste 0 -- -- 84
2020-05-22 07:00:00 14.1 6 Sudoeste 9 Sudoeste 0 -- -- 77
2020-05-22 06:00:00 14.3 7 Sudoeste 13 Sudoeste 0 -- -- 74
2020-05-22 05:00:00 14.4 5 Sudoeste 16 Sudoeste 0 -- -- 71
2020-05-22 04:00:00 15.5 13 Sudoeste 19 Sudoeste 0 -- -- 68
2020-05-22 03:00:00 16.1 12 Sudoeste 16 Sudoeste 0 -- -- 66
2020-05-22 02:00:00 16.4 5 Sudoeste 13 Sudoeste 0 -- -- 66
2020-05-22 01:00:00 16.8 9 Sudoeste 21 Oeste 0 -- -- 65
2020-05-22 00:00:00 17.8 15 Sudoeste 23 Sudoeste 0 -- -- 61
2020-05-21 23:00:00 18.6 14 Sudoeste 22 Sudoeste 0 -- -- 59
2020-05-21 22:00:00 20.3 16 Oeste 29 Oeste 0 -- -- 53
2020-05-21 21:00:00 23.3 18 Oeste 28 Oeste 0 -- -- 47
2020-05-21 20:00:00 25.7 18 Oeste 31 Sudoeste 0 -- -- 42
2020-05-21 19:00:00 27.1 15 Oeste 33 Oeste 0 -- -- 37
2020-05-21 18:00:00 28 16 Oeste 29 Oeste 0 -- -- 30
2020-05-21 17:00:00 27.9 9 Oeste 20 Sudoeste 0 -- -- 26
2020-05-21 16:00:00 27.7 10 Sudoeste 18 Oeste 0 -- -- 30
2020-05-21 15:00:00 27.1 4 Este 15 Sudoeste 0 -- -- 29
2020-05-21 14:00:00 26.5 8 Sudeste 16 Este 0 -- -- 28
2020-05-21 13:00:00 26.1 10 Este 19 Sudeste 0 -- -- 31
2020-05-21 12:00:00 24.8 5 Nordeste 12 Norte 0 -- -- 36
2020-05-21 11:00:00 23.3 5 Nordeste 9 Este 0 -- -- 46
2020-05-21 10:00:00 22.1 5 Este 10 Sudeste 0 -- -- 52
2020-05-21 09:00:00 19 0 Calma 6 Sur 0 -- -- 75
2020-05-21 08:00:00 15.9 4 Sudoeste 14 Sudoeste 0 -- -- 80
2020-05-21 07:00:00 13.1 9 Sudoeste 13 Sudoeste 0 -- -- 84
2020-05-21 06:00:00 13.3 9 Sudoeste 18 Sudoeste 0 -- -- 80
2020-05-21 05:00:00 12.7 11 Sudoeste 23 Sudoeste 0 -- -- 76
2020-05-21 04:00:00 14.2 15 Sudoeste 22 Sudoeste 0 -- -- 69
2020-05-21 03:00:00 14 10 Sudoeste 14 Sudoeste 0 -- -- 55
2020-05-21 02:00:00 14.2 11 Sudoeste 15 Sudoeste 0 -- -- 51
2020-05-21 01:00:00 15.3 6 Sur 9 Sur 0 -- -- 45
2020-05-21 00:00:00 17.5 5 Sur 8 Sur 0 -- -- 41
2020-05-20 23:00:00 19.1 5 Sudeste 8 Sudeste 0 -- -- 36
2020-05-20 22:00:00 20.4 2 Norte 5 Norte 0 -- -- 39
2020-05-20 21:00:00 22.7 6 Norte 13 Norte 0 -- -- 40
2020-05-20 20:00:00 24.8 8 Norte 17 Norte 0 -- -- 31
2020-05-20 19:00:00 25.4 10 Norte 25 Norte 0 -- -- 30
2020-05-20 18:00:00 25.5 11 Nordeste 23 Nordeste 0 -- -- 25
2020-05-20 17:00:00 25.4 9 Nordeste 23 Norte 0 -- -- 25
2020-05-20 16:00:00 24.8 7 Nordeste 32 Norte 0 -- -- 31
2020-05-20 15:00:00 24.2 6 Nordeste 29 Norte 0 -- -- 34
2020-05-20 14:00:00 23.5 9 Nordeste 20 Norte 0 -- -- 36
2020-05-20 13:00:00 22.7 12 Nordeste 24 Nordeste 0 -- -- 38
2020-05-20 12:00:00 21.7 10 Nordeste 18 Norte 0 -- -- 39
2020-05-20 11:00:00 20.1 0 Calma 9 Nordeste 0 -- -- 48
2020-05-20 10:00:00 17.7 4 Este 8 Este 0 -- -- 58
2020-05-20 09:00:00 15.9 3 Este 4 Nordeste 0 -- -- 62
2020-05-20 08:00:00 13.1 0 Calma 6 Norte 0 -- -- 68
2020-05-20 07:00:00 12.2 5 Noroeste 6 Norte 0 -- -- 65
2020-05-20 06:00:00 9.9 2 Noroeste 4 Sudoeste 0 -- -- 73
2020-05-20 05:00:00 10.7 3 Sur 6 Sur 0 -- -- 74
2020-05-20 04:00:00 13.3 4 Sur 8 Sur 0 -- -- 64
2020-05-20 03:00:00 14.2 5 Sur 12 Sudeste 0 -- -- 63
2020-05-20 02:00:00 14.8 6 Sudeste 10 Sudeste 0 -- -- 60
2020-05-20 01:00:00 15 5 Sur 7 Este 0 -- -- 63
2020-05-20 00:00:00 16.4 0 Calma 5 Nordeste 0 -- -- 57
2020-05-19 23:00:00 17.4 0 Calma 5 Noroeste 0 -- -- 53
2020-05-19 22:00:00 18.4 3 Noroeste 8 Nordeste 0 -- -- 51
2020-05-19 21:00:00 20.3 4 Nordeste 16 Nordeste 0 -- -- 48
2020-05-19 20:00:00 22.3 11 Nordeste 23 Noroeste 0 -- -- 43
2020-05-19 19:00:00 23.1 10 Norte 24 Nordeste 0 -- -- 41
2020-05-19 18:00:00 23.4 14 Nordeste 24 Norte 0 -- -- 36
2020-05-19 17:00:00 23.2 9 Nordeste 20 Nordeste 0 -- -- 38
2020-05-19 16:00:00 22.5 13 Nordeste 22 Nordeste 0 -- -- 41
2020-05-19 15:00:00 21.7 12 Nordeste 21 Nordeste 0 -- -- 42
2020-05-19 14:00:00 20.5 6 Nordeste 22 Nordeste 0 -- -- 44
2020-05-19 13:00:00 19.2 8 Nordeste 15 Norte 0 -- -- 44
2020-05-19 12:00:00 17.6 7 Norte 14 Norte 0 -- -- 51
2020-05-19 11:00:00 16 8 Noroeste 15 Noroeste 0 -- -- 55
2020-05-19 10:00:00 13.9 6 Noroeste 11 Norte 0 -- -- 59
2020-05-19 09:00:00 13.1 6 Norte 9 Norte 0 -- -- 60
2020-05-19 08:00:00 12.1 2 Nordeste 5 Sur 0 -- -- 57
2020-05-19 07:00:00 9.6 0 Calma 5 Nordeste 0 -- -- 62
2020-05-19 06:00:00 9.7 0 Calma 4 Oeste 0 -- -- 66
2020-05-19 05:00:00 12.4 4 Sudeste 7 Sur 0 -- -- 59
2020-05-19 04:00:00 11.6 4 Sur 10 Sudeste 0 -- -- 67
2020-05-19 03:00:00 12.7 4 Sudeste 17 Sudeste 0 -- -- 63
2020-05-19 02:00:00 13.4 6 Sur 12 Sudeste 0 -- -- 62
2020-05-19 01:00:00 13.7 4 Sur 9 Sudeste 0 -- -- 62
2020-05-19 00:00:00 15.1 0 Calma 2 Nordeste 0 -- -- 53
2020-05-18 23:00:00 16 0 Calma 5 Norte 0 -- -- 51
2020-05-18 22:00:00 17.5 3 Norte 7 Nordeste 0 -- -- 49
2020-05-18 21:00:00 19.6 6 Nordeste 18 Norte 0 -- -- 51
2020-05-18 20:00:00 21.1 10 Nordeste 20 Nordeste 0 -- -- 40
2020-05-18 19:00:00 21.7 9 Nordeste 24 Nordeste 0 -- -- 39
2020-05-18 18:00:00 21.5 10 Nordeste 19 Nordeste 0 -- -- 36
2020-05-18 17:00:00 21.3 12 Nordeste 28 Nordeste 0 -- -- 37
2020-05-18 16:00:00 20.7 13 Nordeste 22 Nordeste 0 -- -- 39
2020-05-18 15:00:00 20 11 Nordeste 27 Nordeste 0 -- -- 38
2020-05-18 14:00:00 19 12 Norte 23 Norte 0 -- -- 39
2020-05-18 13:00:00 18.4 11 Norte 25 Nordeste 0 -- -- 42
2020-05-18 12:00:00 17.4 10 Nordeste 18 Nordeste 0 -- -- 38
2020-05-18 11:00:00 16.3 6 Este 9 Nordeste 0 -- -- 26
2020-05-18 10:00:00 14.6 2 Nordeste 6 Nordeste 0 -- -- 59
2020-05-18 09:00:00 13 0 Calma 4 Sudeste 0 -- -- 63
2020-05-18 08:00:00 9.5 0 Calma 5 Oeste 0 -- -- 76
2020-05-18 07:00:00 6.3 4 Noroeste 12 Sudoeste 0 -- -- 81
2020-05-18 06:00:00 7 10 Sudoeste 12 Sudoeste 0 -- -- 79
2020-05-18 05:00:00 7.2 7 Oeste 10 Sudoeste 0 -- -- 78
2020-05-18 04:00:00 8.1 7 Sudoeste 11 Oeste 0 -- -- 73
2020-05-18 03:00:00 8.3 5 Sudoeste 9 Sur 0 -- -- 73
2020-05-18 02:00:00 10.1 5 Sur 8 Sur 0 -- -- 65
2020-05-18 01:00:00 11.3 5 Sur 8 Sur 0 -- -- 61
2020-05-18 00:00:00 12.3 0 Calma 3 Noroeste 0 -- -- 57
2020-05-17 23:00:00 12.8 3 Noroeste 9 Norte 0 -- -- 60
2020-05-17 22:00:00 13.4 6 Norte 9 Norte 0 -- -- 62
2020-05-17 21:00:00 16.7 8 Norte 14 Norte 0 -- -- 56
2020-05-17 20:00:00 17.8 11 Nordeste 19 Norte 0 -- -- 45
2020-05-17 19:00:00 18.1 10 Nordeste 22 Norte 0 -- -- 52
2020-05-17 18:00:00 17.8 10 Norte 24 Norte 0 -- -- 52
2020-05-17 17:00:00 17.2 13 Este 19 Este 0 -- -- 50
2020-05-17 16:00:00 16.5 13 Nordeste 24 Nordeste 0 -- -- 52
2020-05-17 15:00:00 15.5 14 Nordeste 23 Nordeste 0 -- -- 62
2020-05-17 14:00:00 15 15 Nordeste 23 Este 0 -- -- 63
2020-05-17 13:00:00 14.3 9 Este 21 Nordeste 0 -- -- 61
2020-05-17 12:00:00 13.2 11 Este 22 Este 0 -- -- 63
2020-05-17 11:00:00 10.5 5 Nordeste 12 Este 0 -- -- 80
2020-05-17 10:00:00 8.8 4 Este 11 Este 0 -- -- 86
2020-05-17 09:00:00 6.6 5 Este 10 Este 0 -- -- 90
2020-05-17 08:00:00 4.4 0 Calma 3 Norte 0 -- -- 95
2020-05-17 07:00:00 3.3 2 Noroeste 6 Noroeste 0 -- -- 96
2020-05-17 06:00:00 3.7 4 Noroeste 6 Oeste 0 -- -- 94
2020-05-17 05:00:00 4.6 3 Norte 10 Este 0 -- -- 92
2020-05-17 04:00:00 5.4 5 Este 11 Este 0 -- -- 91
2020-05-17 03:00:00 5.8 9 Sudeste 15 Sudeste 0 -- -- 90
2020-05-17 02:00:00 6.4 5 Este 14 Este 0 -- -- 89
2020-05-17 01:00:00 7 10 Este 16 Nordeste 0 -- -- 86
2020-05-17 00:00:00 8.3 14 Este 22 Este 0 -- -- 83
2020-05-16 23:00:00 8.2 13 Este 16 Este 0 -- -- 88
2020-05-16 22:00:00 10.2 8 Nordeste 21 Nordeste 0 -- -- 83
2020-05-16 21:00:00 13.1 14 Nordeste 29 Nordeste 0 -- -- 72
2020-05-16 20:00:00 14.7 20 Nordeste 31 Nordeste 0 -- -- 64
2020-05-16 19:00:00 15.4 23 Nordeste 34 Nordeste 0 -- -- 61
2020-05-16 18:00:00 15.1 15 Nordeste 23 Nordeste 0 -- -- 64
2020-05-16 17:00:00 15.1 14 Norte 31 Nordeste 0 -- -- 64
2020-05-16 16:00:00 15.7 14 Nordeste 22 Nordeste 0 -- -- 60
2020-05-16 15:00:00 15 8 Nordeste 25 Este 0 -- -- 67
2020-05-16 14:00:00 14.1 11 Este 24 Este 0 -- -- 73
2020-05-16 13:00:00 12.7 12 Nordeste 19 Este 0 -- -- 80
2020-05-16 12:00:00 10 8 Este 17 Este 0 -- -- 87
2020-05-16 11:00:00 8.2 7 Este 13 Nordeste 0 -- -- 91
2020-05-16 10:00:00 7.2 9 Nordeste 15 Nordeste 0 -- -- 92
2020-05-16 09:00:00 6.2 5 Nordeste 9 Nordeste 0 -- -- 96
2020-05-16 08:00:00 5.6 5 Nordeste 16 Este 0 -- -- 97
2020-05-16 07:00:00 5.6 9 Nordeste 14 Nordeste 0 -- -- 96
2020-05-16 06:00:00 6.2 6 Nordeste 12 Nordeste 0 -- -- 96
2020-05-16 05:00:00 6.4 11 Nordeste 17 Nordeste 0 -- -- 95
2020-05-16 04:00:00 6.9 11 Nordeste 16 Nordeste 0 -- -- 95
2020-05-16 03:00:00 7.1 9 Este 17 Nordeste 0 -- -- 95
2020-05-16 02:00:00 7.2 12 Nordeste 21 Nordeste 0 -- -- 96
2020-05-16 01:00:00 7.8 10 Nordeste 21 Este 0 -- -- 95
2020-05-16 00:00:00 8.2 15 Nordeste 24 Nordeste 0.2 -- -- 94
2020-05-15 23:00:00 8.8 13 Nordeste 28 Nordeste 0.2 -- -- 93
2020-05-15 22:00:00 9.9 16 Nordeste 29 Nordeste 0 -- -- 88
2020-05-15 21:00:00 11.3 15 Nordeste 31 Este 0 -- -- 82
2020-05-15 20:00:00 12.2 21 Nordeste 35 Nordeste 0 -- -- 76
2020-05-15 19:00:00 12.8 21 Nordeste 32 Nordeste 0 -- -- 75
2020-05-15 18:00:00 13.6 17 Este 27 Nordeste 0 -- -- 75
2020-05-15 17:00:00 13.6 18 Nordeste 26 Norte 0 -- -- 69
2020-05-15 16:00:00 13.5 16 Nordeste 28 Nordeste 0 -- -- 72
2020-05-15 15:00:00 12.8 17 Nordeste 26 Norte 0 -- -- 76
2020-05-15 14:00:00 11.9 17 Nordeste 29 Nordeste 0 -- -- 79
2020-05-15 13:00:00 11.9 13 Nordeste 22 Nordeste 0 -- -- 78
2020-05-15 12:00:00 10.1 8 Este 16 Nordeste 0 -- -- 89
2020-05-15 11:00:00 8.7 11 Nordeste 16 Nordeste 0.2 -- -- 94
2020-05-15 10:00:00 8.3 12 Nordeste 18 Nordeste 0 -- -- 97
2020-05-15 09:00:00 7.8 8 Nordeste 12 Este 0 -- -- 99
2020-05-15 08:00:00 7.5 7 Este 11 Nordeste 0 -- -- 100
2020-05-15 07:00:00 7.3 5 Sudeste 11 Este 0 -- -- 99
2020-05-15 06:00:00 7.2 6 Este 10 Este 0 -- -- 99
2020-05-15 05:00:00 6.6 9 Este 13 Este 0 -- -- 98
2020-05-15 04:00:00 6.7 7 Este 11 Este 0 -- -- 97
2020-05-15 03:00:00 7.3 3 Nordeste 6 Nordeste 0 -- -- 96
2020-05-15 02:00:00 8.3 2 Sudeste 10 Este 0 -- -- 96
2020-05-15 01:00:00 8.2 8 Sudeste 12 Sudeste 0 -- -- 97
2020-05-15 00:00:00 8.4 9 Este 12 Este 0 -- -- 95
2020-05-14 23:00:00 9.2 4 Este 6 Este 0 -- -- 94
2020-05-14 22:00:00 9.5 5 Este 9 Nordeste 0 -- -- 90
2020-05-14 21:00:00 10.4 5 Nordeste 17 Nordeste 0 -- -- 84
2020-05-14 20:00:00 11.1 13 Nordeste 22 Nordeste 0 -- -- 79
2020-05-14 19:00:00 12.5 14 Nordeste 21 Nordeste 0 -- -- 74
2020-05-14 18:00:00 12.7 13 Nordeste 19 Nordeste 0 -- -- 74
2020-05-14 17:00:00 12 10 Nordeste 19 Nordeste 0.2 -- -- 78
2020-05-14 16:00:00 10.8 4 Este 17 Sudeste 0 -- -- 81
2020-05-14 15:00:00 11 4 Nordeste 13 Este 0 -- -- 82
2020-05-14 14:00:00 9.9 8 Norte 13 Nordeste 0.2 -- -- 90
2020-05-14 13:00:00 9.5 6 Norte 13 Nordeste 0 -- -- 89
2020-05-14 12:00:00 9.7 6 Oeste 12 Oeste 0 -- -- 88
2020-05-14 11:00:00 8.7 3 Este 5 Este 0 -- -- 92
2020-05-14 10:00:00 7.8 3 Sudoeste 14 Oeste 0.6 -- -- 98
2020-05-14 09:00:00 7.4 10 Oeste 17 Oeste 0.2 -- -- 98
2020-05-14 08:00:00 7.4 8 Oeste 25 Oeste 0.8 -- -- 98
2020-05-14 07:00:00 7.8 16 Oeste 30 Oeste 1 -- -- 96
2020-05-14 06:00:00 8.8 10 Oeste 15 Oeste 0 -- -- 93
2020-05-14 05:00:00 7.3 3 Sur 6 Sur 0 -- -- 93
2020-05-14 04:00:00 7.2 3 Sur 13 Sudeste 0 -- -- 92
2020-05-14 03:00:00 7.9 9 Este 14 Sudeste 0 -- -- 89
2020-05-14 02:00:00 8.1 10 Sudeste 14 Sudeste 0 -- -- 89
2020-05-14 01:00:00 7.9 3 Sudeste 14 Sudeste 0 -- -- 97
2020-05-14 00:00:00 8.7 10 Sudeste 14 Este 0 -- -- 95
2020-05-13 23:00:00 9.6 8 Sudeste 12 Este 0 -- -- 95
2020-05-13 22:00:00 10 6 Este 10 Este 0 -- -- 94
2020-05-13 21:00:00 12.1 7 Este 12 Nordeste 0 -- -- 89
2020-05-13 20:00:00 12.8 6 Nordeste 12 Nordeste 0 -- -- 86
2020-05-13 19:00:00 13.4 7 Norte 11 Norte 0 -- -- 73
2020-05-13 18:00:00 12.6 3 Norte 8 Noroeste 0.4 -- -- 83
2020-05-13 17:00:00 11.7 2 Norte 25 Oeste 0.4 -- -- 88
2020-05-13 16:00:00 13.8 15 Oeste 18 Oeste 0.4 -- -- 82
2020-05-13 15:00:00 12.1 7 Oeste 21 Sudeste 6.2 -- -- 84
2020-05-13 14:00:00 13.9 5 Norte 19 Oeste 0 -- -- 72
2020-05-13 13:00:00 14.4 8 Noroeste 17 Noroeste 0 -- -- 67
2020-05-13 12:00:00 13.4 9 Oeste 18 Oeste 0 -- -- 73
2020-05-13 11:00:00 11.9 11 Noroeste 22 Oeste 0 -- -- 82
2020-05-13 10:00:00 11.4 13 Oeste 18 Oeste 0 -- -- 87
2020-05-13 09:00:00 9.9 8 Oeste 18 Oeste 0 -- -- 95
2020-05-13 08:00:00 8.1 5 Oeste 9 Sudoeste 0 -- -- 99
2020-05-13 07:00:00 7.6 6 Sudoeste 12 Oeste 0 -- -- 98
2020-05-13 06:00:00 8.1 8 Oeste 21 Oeste 0.4 -- -- 98
2020-05-13 05:00:00 8.1 19 Sudoeste 34 Oeste 0 -- -- 98
2020-05-13 04:00:00 8.2 17 Oeste 27 Oeste 0 -- -- 98
2020-05-13 03:00:00 8.5 14 Oeste 27 Oeste 0 -- -- 98
2020-05-13 02:00:00 8.2 17 Oeste 28 Oeste 0 -- -- 97
2020-05-13 01:00:00 8.2 15 Oeste 26 Oeste 0.2 -- -- 97
2020-05-13 00:00:00 8.5 13 Oeste 23 Sudoeste 0.6 -- -- 97
2020-05-12 23:00:00 8.8 11 Oeste 19 Oeste 1.6 -- -- 97
2020-05-12 22:00:00 9 9 Oeste 17 Sur 1.6 -- -- 96
2020-05-12 21:00:00 9.4 11 Sudoeste 24 Sudoeste 0.6 -- -- 93
2020-05-12 20:00:00 9.8 5 Sudoeste 18 Sur 2 -- -- 91
2020-05-12 19:00:00 10.1 10 Sur 23 Sur 0.6 -- -- 90
2020-05-12 18:00:00 12.6 9 Noroeste 22 Noroeste 0 -- -- 76
2020-05-12 17:00:00 14 17 Oeste 30 Oeste 0 -- -- 63
2020-05-12 16:00:00 14.1 22 Oeste 39 Oeste 0 -- -- 63
2020-05-12 15:00:00 15.4 18 Sudoeste 37 Sudoeste 0 -- -- 70
2020-05-12 14:00:00 16.3 19 Sudeste 31 Este 0 -- -- 61
2020-05-12 13:00:00 14.3 14 Este 20 Este 0 -- -- 77
2020-05-12 12:00:00 13 11 Este 18 Este 0 -- -- 80
2020-05-12 11:00:00 11.8 11 Este 17 Sudeste 0 -- -- 85
2020-05-12 10:00:00 10.5 4 Sudeste 14 Sudeste 0 -- -- 90
2020-05-12 09:00:00 9.1 3 Sudeste 7 Sur 0 -- -- 94
2020-05-12 08:00:00 8.5 4 Sur 9 Sur 0 -- -- 93
2020-05-12 07:00:00 8.6 4 Sur 12 Sudoeste 0 -- -- 93
2020-05-12 06:00:00 9.1 7 Sudoeste 14 Sudoeste 0 -- -- 95
2020-05-12 05:00:00 8.7 8 Sudoeste 13 Sudoeste 0 -- -- 96
2020-05-12 04:00:00 8.1 2 Sudoeste 14 Sudoeste 0 -- -- 95
2020-05-12 03:00:00 9.2 8 Sudoeste 18 Sudoeste 0 -- -- 91
2020-05-12 02:00:00 9.9 14 Sudoeste 33 Oeste 0 -- -- 89
2020-05-12 01:00:00 9.8 15 Sudoeste 23 Sudoeste 0 -- -- 89
2020-05-12 00:00:00 10.5 11 Sudoeste 25 Sudoeste 0 -- -- 87
2020-05-11 23:00:00 11.2 12 Oeste 19 Sudoeste 0 -- -- 88
2020-05-11 22:00:00 12.2 14 Oeste 22 Oeste 0 -- -- 80
2020-05-11 21:00:00 13.9 13 Oeste 31 Oeste 0 -- -- 70
2020-05-11 20:00:00 15.7 21 Oeste 36 Oeste 0 -- -- 59
2020-05-11 19:00:00 16.6 21 Oeste 40 Oeste 0 -- -- 58
2020-05-11 18:00:00 16.8 23 Oeste 37 Oeste 0 -- -- 56
2020-05-11 17:00:00 16.2 21 Sudoeste 44 Oeste 0 -- -- 65
2020-05-11 16:00:00 16 14 Oeste 37 Oeste 0 -- -- 63
2020-05-11 15:00:00 13.9 17 Sudoeste 41 Oeste 0.6 -- -- 74
2020-05-11 14:00:00 16.2 19 Oeste 30 Oeste 0 -- -- 60
2020-05-11 13:00:00 15.1 12 Sudoeste 24 Oeste 0 -- -- 58
2020-05-11 12:00:00 14.7 15 Oeste 28 Sudoeste 0 -- -- 62
2020-05-11 11:00:00 12.4 6 Oeste 20 Sudoeste 0 -- -- 73
2020-05-11 10:00:00 10.5 10 Sudoeste 30 Oeste 0 -- -- 80
2020-05-11 09:00:00 9.7 10 Sudoeste 19 Sudoeste 0 -- -- 91
2020-05-11 08:00:00 8.8 11 Sudoeste 19 Sudoeste 0 -- -- 96
2020-05-11 07:00:00 8.1 11 Oeste 19 Sudoeste 0 -- -- 95
2020-05-11 06:00:00 7.6 11 Sudoeste 18 Oeste 0 -- -- 95
2020-05-11 05:00:00 6.8 9 Oeste 17 Sudoeste 0 -- -- 94
2020-05-11 04:00:00 7.5 10 Sudoeste 17 Sudoeste 0 -- -- 92
2020-05-11 03:00:00 7.7 10 Sudoeste 16 Sudoeste 0 -- -- 92
2020-05-11 02:00:00 8.6 13 Sudoeste 21 Sudoeste 0 -- -- 90
2020-05-11 01:00:00 8.8 12 Sudoeste 20 Sudoeste 0 -- -- 90
2020-05-11 00:00:00 9 12 Sudoeste 22 Oeste 0 -- -- 87
2020-05-10 23:00:00 9.8 14 Sudoeste 32 Oeste 0 -- -- 84
2020-05-10 22:00:00 10.8 13 Sudoeste 33 Oeste 0 -- -- 81
2020-05-10 21:00:00 12.2 21 Oeste 38 Sudoeste 0 -- -- 73
2020-05-10 20:00:00 13.4 23 Oeste 34 Oeste 0 -- -- 69
2020-05-10 19:00:00 13.6 19 Oeste 39 Oeste 0 -- -- 70
2020-05-10 18:00:00 13.9 23 Noroeste 35 Oeste 0 -- -- 59
2020-05-10 17:00:00 14.3 22 Noroeste 33 Noroeste 0 -- -- 54
2020-05-10 16:00:00 15.6 21 Oeste 35 Oeste 0 -- -- 54
2020-05-10 15:00:00 13.4 17 Oeste 32 Noroeste 0 -- -- 60
2020-05-10 14:00:00 13.9 19 Oeste 40 Noroeste 0 -- -- 60
2020-05-10 13:00:00 12.9 18 Oeste 30 Oeste 0 -- -- 67
2020-05-10 12:00:00 11.9 15 Oeste 32 Oeste 0 -- -- 71
2020-05-10 11:00:00 10.4 16 Oeste 24 Oeste 0 -- -- 76
2020-05-10 10:00:00 9.3 10 Oeste 21 Oeste 0 -- -- 86
2020-05-10 09:00:00 8.1 15 Oeste 23 Oeste 0 -- -- 92
2020-05-10 08:00:00 7.5 10 Oeste 16 Oeste 0 -- -- 97
2020-05-10 07:00:00 7.3 9 Oeste 18 Oeste 0 -- -- 98
2020-05-10 06:00:00 7.5 12 Oeste 17 Oeste 0 -- -- 96
2020-05-10 05:00:00 7.9 7 Oeste 21 Oeste 0 -- -- 95
2020-05-10 04:00:00 8.6 13 Oeste 22 Sudoeste 0 -- -- 95
2020-05-10 03:00:00 8.9 13 Oeste 26 Oeste 0.2 -- -- 95
2020-05-10 02:00:00 9.3 16 Oeste 30 Sudoeste 1.2 -- -- 94
2020-05-10 01:00:00 9.7 14 Oeste 24 Oeste 1.2 -- -- 93
2020-05-10 00:00:00 10.4 17 Oeste 26 Oeste 0 -- -- 86
2020-05-09 23:00:00 11.8 13 Oeste 22 Oeste 0 -- -- 71
2020-05-09 22:00:00 13.3 12 Sudoeste 26 Sudoeste 0 -- -- 61
2020-05-09 21:00:00 13.1 14 Sudoeste 40 Sudoeste 0 -- -- 69
2020-05-09 20:00:00 14.9 16 Sudoeste 30 Oeste 0 -- -- 59
2020-05-09 19:00:00 16.3 9 Oeste 24 Oeste 0 -- -- 63
2020-05-09 18:00:00 17.6 7 Noroeste 21 Oeste 0 -- -- 59
2020-05-09 17:00:00 17.3 9 Oeste 28 Oeste 0 -- -- 60
2020-05-09 16:00:00 16.5 18 Oeste 30 Noroeste 0 -- -- 65
2020-05-09 15:00:00 16.2 15 Oeste 26 Oeste 0 -- -- 64
2020-05-09 14:00:00 17 15 Oeste 24 Oeste 0 -- -- 65
2020-05-09 13:00:00 15.8 11 Sudoeste 28 Oeste 0 -- -- 69
2020-05-09 12:00:00 15.2 14 Oeste 24 Oeste 0 -- -- 73
2020-05-09 11:00:00 14.7 13 Oeste 27 Sudoeste 0 -- -- 76
2020-05-09 10:00:00 13.1 15 Oeste 25 Sudoeste 0 -- -- 85
2020-05-09 09:00:00 12.7 18 Oeste 26 Oeste 0 -- -- 88
2020-05-09 08:00:00 10.1 9 Oeste 11 Sudoeste 0 -- -- 92
2020-05-09 07:00:00 11 6 Sudoeste 11 Sudoeste 0 -- -- 88
2020-05-09 06:00:00 11.7 8 Oeste 12 Sudoeste 0 -- -- 87
2020-05-09 05:00:00 12.2 2 Sur 7 Sur 0 -- -- 84
2020-05-09 04:00:00 11.8 4 Sur 10 Sudoeste 0 -- -- 84
2020-05-09 03:00:00 12.3 0 Calma 14 Sudoeste 0 -- -- 84
2020-05-09 02:00:00 13.6 12 Sudoeste 23 Sudoeste 0 -- -- 81
2020-05-09 01:00:00 14.2 13 Sudoeste 21 Sudoeste 0 -- -- 78
2020-05-09 00:00:00 15.2 13 Sudoeste 19 Oeste 0 -- -- 73
2020-05-08 23:00:00 15 6 Oeste 11 Sudoeste 0 -- -- 74
2020-05-08 22:00:00 16.9 10 Oeste 21 Oeste 0 -- -- 65
2020-05-08 21:00:00 19.4 14 Oeste 27 Oeste 0 -- -- 57
2020-05-08 20:00:00 21.9 11 Oeste 32 Oeste 0 -- -- 51
2020-05-08 19:00:00 22.5 18 Oeste 30 Oeste 0 -- -- 47
2020-05-08 18:00:00 23.1 13 Oeste 28 Sudoeste 0 -- -- 45
2020-05-08 17:00:00 22.3 7 Sudoeste 28 Sudoeste 0 -- -- 48
2020-05-08 16:00:00 23.9 14 Sur 27 Sur 0 -- -- 46
2020-05-08 15:00:00 22.5 8 Sudeste 24 Sudeste 0 -- -- 49
2020-05-08 14:00:00 21.4 5 Nordeste 18 Sudeste 0 -- -- 58
2020-05-08 13:00:00 21.1 9 Sudeste 19 Sudeste 0 -- -- 55
2020-05-08 12:00:00 19.4 5 Este 12 Oeste 0 -- -- 65
2020-05-08 11:00:00 18 7 Oeste 15 Sudoeste 0 -- -- 67
2020-05-08 10:00:00 16.1 5 Sudoeste 9 Oeste 0 -- -- 74
2020-05-08 09:00:00 14.7 3 Este 9 Oeste 0 -- -- 84
2020-05-08 08:00:00 14.2 7 Oeste 15 Sudoeste 0 -- -- 80
2020-05-08 07:00:00 13.1 5 Sudoeste 14 Sudoeste 0 -- -- 80
2020-05-08 06:00:00 14.1 9 Sur 17 Sudoeste 0 -- -- 77
2020-05-08 05:00:00 15.1 10 Sur 33 Sur 0 -- -- 70
2020-05-08 04:00:00 15.7 20 Sur 35 Sur 0 -- -- 64
2020-05-08 03:00:00 16.4 15 Sur 39 Sudeste 0 -- -- 62
2020-05-08 02:00:00 16.7 13 Sudeste 34 Sudeste 0 -- -- 63
2020-05-08 01:00:00 17.8 16 Sudeste 32 Sudeste 0 -- -- 59
2020-05-08 00:00:00 19 17 Sudeste 30 Sur 0 -- -- 49
2020-05-07 23:00:00 19.2 11 Sudeste 24 Sur 0 -- -- 56
2020-05-07 22:00:00 19.4 12 Sur 25 Sur 0 -- -- 56
2020-05-07 21:00:00 21.2 10 Sur 19 Sur 0 -- -- 53
2020-05-07 20:00:00 23.4 10 Sur 25 Sur 0 -- -- 43
2020-05-07 19:00:00 24.6 9 Noroeste 33 Sur 0 -- -- 48
2020-05-07 18:00:00 23.8 21 Sur 38 Sur 0 -- -- 41
2020-05-07 17:00:00 24.5 23 Sudeste 45 Sur 0 -- -- 46
2020-05-07 16:00:00 22.9 30 Sudeste 44 Sudeste 0 -- -- 53
2020-05-07 15:00:00 22.4 27 Sudeste 41 Sudeste 0 -- -- 52
2020-05-07 14:00:00 20.8 22 Sudeste 40 Sudeste 0 -- -- 57
2020-05-07 13:00:00 21.1 24 Sudeste 37 Sudeste 0 -- -- 57
2020-05-07 12:00:00 20.2 18 Sudeste 38 Sudeste 0 -- -- 58
2020-05-07 11:00:00 19.3 18 Sudeste 34 Sudeste 0 -- -- 62
2020-05-07 10:00:00 17.1 13 Sudeste 27 Sudeste 0 -- -- 69
2020-05-07 09:00:00 14.8 9 Sudeste 16 Sudeste 0 -- -- 62
2020-05-07 08:00:00 13.2 9 Sur 17 Sur 0 -- -- 57
2020-05-07 07:00:00 11.3 4 Sudeste 14 Sudeste 0 -- -- 73
2020-05-07 06:00:00 10.9 6 Sudeste 9 Sur 0 -- -- 76
2020-05-07 05:00:00 11.6 3 Sudeste 10 Sudeste 0 -- -- 73
2020-05-07 04:00:00 12.5 4 Sudeste 8 Sudeste 0 -- -- 70
2020-05-07 03:00:00 12.4 5 Sudeste 8 Sur 0 -- -- 71
2020-05-07 02:00:00 13.3 4 Sur 10 Sudeste 0 -- -- 67
2020-05-07 01:00:00 14.2 7 Este 9 Sudeste 0 -- -- 62
2020-05-07 00:00:00 14.5 4 Sudeste 6 Sudeste 0 -- -- 60
2020-05-06 23:00:00 15.4 0 Calma 7 Noroeste 0 -- -- 55
2020-05-06 22:00:00 15.3 6 Norte 9 Norte 0 -- -- 60
2020-05-06 21:00:00 18.2 7 Norte 15 Noroeste 0 -- -- 59
2020-05-06 20:00:00 20 11 Noroeste 19 Norte 0 -- -- 48
2020-05-06 19:00:00 20.9 9 Norte 19 Norte 0 -- -- 45
2020-05-06 18:00:00 20.8 7 Norte 17 Norte 0 -- -- 43
2020-05-06 17:00:00 20.4 12 Nordeste 25 Nordeste 0 -- -- 48
2020-05-06 16:00:00 20.2 7 Este 18 Norte 0 -- -- 50
2020-05-06 15:00:00 19.1 9 Norte 19 Nordeste 0 -- -- 53
2020-05-06 14:00:00 18.2 6 Nordeste 19 Este 0 -- -- 52
2020-05-06 13:00:00 16.8 7 Este 17 Nordeste 0 -- -- 60
2020-05-06 12:00:00 16 7 Este 15 Nordeste 0 -- -- 62
2020-05-06 11:00:00 14.9 7 Nordeste 12 Norte 0 -- -- 70
2020-05-06 10:00:00 14.2 3 Oeste 11 Sudoeste 0 -- -- 75
2020-05-06 09:00:00 11.7 7 Sudoeste 13 Sudoeste 0 -- -- 85
2020-05-06 08:00:00 9.5 7 Sudoeste 13 Sudoeste 0 -- -- 88
2020-05-06 07:00:00 7.4 6 Sudoeste 12 Sudoeste 0 -- -- 91
2020-05-06 06:00:00 7.9 5 Sudoeste 15 Sudoeste 0 -- -- 85
2020-05-06 05:00:00 8.6 12 Sudoeste 17 Sudoeste 0 -- -- 83
2020-05-06 04:00:00 9.8 12 Sudoeste 15 Sudoeste 0 -- -- 77
2020-05-06 03:00:00 10.5 9 Sudoeste 14 Sudoeste 0 -- -- 75
2020-05-06 02:00:00 10.5 11 Sudoeste 17 Sudoeste 0 -- -- 76
2020-05-06 01:00:00 10.8 10 Sudoeste 15 Sudoeste 0 -- -- 76
2020-05-06 00:00:00 11 12 Sudoeste 17 Sudoeste 0 -- -- 75
2020-05-05 23:00:00 11.8 12 Sudoeste 16 Sudoeste 0 -- -- 71
2020-05-05 22:00:00 13 12 Sudoeste 17 Sudoeste 0 -- -- 67
2020-05-05 21:00:00 16.2 11 Oeste 23 Oeste 0 -- -- 54
2020-05-05 20:00:00 18.2 15 Oeste 30 Oeste 0 -- -- 37
2020-05-05 19:00:00 18.9 22 Oeste 31 Oeste 0 -- -- 34
2020-05-05 18:00:00 19.4 12 Oeste 26 Oeste 0 -- -- 37
2020-05-05 17:00:00 19 15 Oeste 30 Oeste 0 -- -- 37
2020-05-05 16:00:00 18.8 9 Sudoeste 27 Oeste 0 -- -- 40
2020-05-05 15:00:00 18 14 Oeste 24 Oeste 0 -- -- 42
2020-05-05 14:00:00 17 10 Oeste 27 Oeste 0 -- -- 44
2020-05-05 13:00:00 16.5 12 Oeste 26 Sudoeste 0 -- -- 48
2020-05-05 12:00:00 15.1 13 Oeste 19 Sudoeste 0 -- -- 53
2020-05-05 11:00:00 13.3 5 Oeste 15 Sudoeste 0 -- -- 59
2020-05-05 10:00:00 11.7 4 Sur 9 Sur 0 -- -- 70
2020-05-05 09:00:00 9.4 2 Sur 5 Nordeste 0 -- -- 89
2020-05-05 08:00:00 7.9 4 Sudoeste 8 Oeste 0 -- -- 86
2020-05-05 07:00:00 7.5 5 Sudoeste 8 Sudoeste 0 -- -- 89
2020-05-05 06:00:00 8.4 3 Sudoeste 15 Oeste 0 -- -- 92
2020-05-05 05:00:00 10 13 Oeste 27 Oeste 0 -- -- 90
2020-05-05 04:00:00 9 11 Oeste 16 Oeste 0 -- -- 92
2020-05-05 03:00:00 9.6 5 Sur 12 Oeste 0 -- -- 87
2020-05-05 02:00:00 10.3 9 Oeste 14 Oeste 0 -- -- 89
2020-05-05 01:00:00 11.4 5 Sur 17 Sudoeste 0 -- -- 85
2020-05-05 00:00:00 12.5 10 Sudoeste 23 Sudoeste 0 -- -- 81
2020-05-04 23:00:00 13.6 12 Sudoeste 26 Oeste 0 -- -- 80
2020-05-04 22:00:00 14.4 17 Oeste 24 Oeste 0 -- -- 77
2020-05-04 21:00:00 16.4 17 Oeste 45 Oeste 0 -- -- 64
2020-05-04 20:00:00 18.5 27 Oeste 52 Sudoeste 0 -- -- 59
2020-05-04 19:00:00 19.7 32 Oeste 54 Oeste 0 -- -- 58
2020-05-04 18:00:00 23.5 36 Sudoeste 63 Oeste 0 -- -- 41
2020-05-04 17:00:00 26.2 26 Sudoeste 49 Sur 0 -- -- 36
2020-05-04 16:00:00 25.9 24 Sudoeste 54 Sur 0 -- -- 35
2020-05-04 15:00:00 25.9 26 Sur 55 Sur 0 -- -- 35
2020-05-04 14:00:00 23 22 Sur 50 Sur 0 -- -- 39
2020-05-04 13:00:00 23.8 21 Sur 47 Sur 0 -- -- 38
2020-05-04 12:00:00 22.6 13 Sudeste 34 Sur 0 -- -- 46
2020-05-04 11:00:00 23.7 20 Sur 40 Sur 0 -- -- 41
2020-05-04 10:00:00 22.1 20 Sur 36 Sur 0 -- -- 42
2020-05-04 09:00:00 20.4 14 Sur 29 Sur 0 -- -- 45
2020-05-04 08:00:00 19.7 16 Sur 29 Sur 0 -- -- 46
2020-05-04 07:00:00 18.6 17 Sur 29 Sur 0 -- -- 48
2020-05-04 06:00:00 17.1 7 Sudeste 17 Sur 0 -- -- 53
2020-05-04 05:00:00 17.9 10 Sur 19 Sur 0 -- -- 52
2020-05-04 04:00:00 16.9 11 Sur 17 Sur 0 -- -- 55
2020-05-04 03:00:00 15.2 9 Sur 15 Sur 0 -- -- 62
2020-05-04 02:00:00 16.3 6 Sur 13 Sur 0 -- -- 59
2020-05-04 01:00:00 16.7 6 Sur 14 Sur 0 -- -- 66
2020-05-04 00:00:00 16.9 5 Sur 13 Este 0 -- -- 70
2020-05-03 23:00:00 18.4 8 Sudoeste 11 Oeste 0 -- -- 64
2020-05-03 22:00:00 19.5 10 Oeste 15 Oeste 0 -- -- 59
2020-05-03 21:00:00 22.3 5 Noroeste 6 Noroeste 0 -- -- 53
2020-05-03 20:00:00 24.2 5 Norte 15 Noroeste 0 -- -- 53
2020-05-03 19:00:00 24.9 10 Norte 16 Norte 0 -- -- 45
2020-05-03 18:00:00 25.4 10 Norte 20 Noroeste 0 -- -- 39
2020-05-03 17:00:00 25.2 7 Norte 19 Norte 0 -- -- 41
2020-05-03 16:00:00 24.3 7 Nordeste 18 Nordeste 0 -- -- 37
2020-05-03 15:00:00 23.5 6 Nordeste 14 Nordeste 0 -- -- 43
2020-05-03 14:00:00 22.9 5 Este 17 Noroeste 0 -- -- 44
2020-05-03 13:00:00 22 4 Norte 15 Oeste 0 -- -- 48
2020-05-03 12:00:00 20.7 5 Noroeste 13 Noroeste 0 -- -- 45
2020-05-03 11:00:00 19.5 5 Noroeste 10 Oeste 0 -- -- 46
2020-05-03 10:00:00 18.2 0 Calma 6 Sur 0 -- -- 61
2020-05-03 09:00:00 13.9 2 Sur 9 Sur 0 -- -- 82
2020-05-03 08:00:00 12.3 5 Sur 9 Sur 0 -- -- 74
2020-05-03 07:00:00 11.6 3 Sur 6 Sur 0 -- -- 77
2020-05-03 06:00:00 11.2 4 Sur 10 Sur 0 -- -- 75
2020-05-03 05:00:00 11 5 Sudoeste 9 Sur 0 -- -- 71
2020-05-03 04:00:00 10.7 6 Sur 9 Sudoeste 0 -- -- 74
2020-05-03 03:00:00 10.9 3 Sudoeste 11 Sudoeste 0 -- -- 77
2020-05-03 02:00:00 12.8 8 Sudoeste 13 Sudoeste 0 -- -- 69
2020-05-03 01:00:00 13.2 6 Sudoeste 14 Sudoeste 0 -- -- 73
2020-05-03 00:00:00 14.5 9 Sudoeste 14 Sudoeste 0 -- -- 75
2020-05-02 23:00:00 15.5 8 Sudoeste 12 Sudoeste 0 -- -- 76
2020-05-02 22:00:00 16.5 7 Oeste 11 Sudoeste 0 -- -- 74
2020-05-02 21:00:00 19.3 5 Oeste 14 Oeste 0 -- -- 65
2020-05-02 20:00:00 21.1 10 Oeste 18 Oeste 0 -- -- 61
2020-05-02 19:00:00 21.7 12 Oeste 23 Sudoeste 0 -- -- 58
2020-05-02 18:00:00 22.1 14 Oeste 33 Oeste 0 -- -- 56
2020-05-02 17:00:00 21.8 13 Oeste 27 Oeste 0 -- -- 61
2020-05-02 16:00:00 21.4 17 Oeste 35 Oeste 0 -- -- 58
2020-05-02 15:00:00 20.6 22 Oeste 35 Oeste 0 -- -- 55
2020-05-02 14:00:00 19.5 17 Oeste 33 Oeste 0 -- -- 60
2020-05-02 13:00:00 17.7 10 Oeste 19 Sudoeste 0 -- -- 70
2020-05-02 12:00:00 15.6 9 Noroeste 16 Oeste 0 -- -- 77
2020-05-02 11:00:00 13.9 5 Noroeste 12 Noroeste 0 -- -- 86
2020-05-02 10:00:00 12.6 7 Noroeste 12 Noroeste 0 -- -- 93
2020-05-02 09:00:00 11.9 2 Norte 5 Norte 0 -- -- 97
2020-05-02 08:00:00 11.2 3 Sur 5 Sur 0 -- -- 97
2020-05-02 07:00:00 10.9 3 Sur 5 Sur 0 -- -- 98
2020-05-02 06:00:00 10.3 4 Sur 12 Sudoeste 0 -- -- 98
2020-05-02 05:00:00 9.9 3 Sudoeste 9 Sudoeste 0 -- -- 97
2020-05-02 04:00:00 10.5 3 Sur 22 Oeste 0 -- -- 96
2020-05-02 03:00:00 11.3 15 Oeste 24 Oeste 0 -- -- 96
2020-05-02 02:00:00 11.7 16 Oeste 30 Oeste 0 -- -- 95
2020-05-02 01:00:00 12.6 18 Oeste 29 Oeste 0 -- -- 93
2020-05-02 00:00:00 13.3 21 Oeste 31 Oeste 0 -- -- 91